METAR v bližini

 

LJLJ - Ljubljana/Brnik, Slovenia
Oddaljenost od postaje: W 41km
Podatki zajeti: 25/06/2019 15:00
Rahlo oblačno
Rahlo oblačno
 Veter iz smeri ESE
Veter: ESE 11 km/h
Temperatura: 29°C
Toplotni indeks: 29°C
Rosišče: 18°C
Vlažnost: 51%
Tlak: 1024 hPa
Oblačnost: Rahlo oblačno
Vidljivost: 10 km
Podrobnosti o oblakih: Rahlo oblačno 1372 m
2019/06/25 13:00 LJLJ 251300Z 11006KT 070V160 9999 FEW045 29/18 Q1024 NOSIG
LJMB - Maribor, Slovenia
Oddaljenost od postaje: NE 63km
Podatki zajeti: 25/06/2019 15:00
Delno oblačno
Delno oblačno
 Veter iz smeri E
Veter: E 6 km/h
Temperatura: 29°C
Toplotni indeks: 29°C
Rosišče: 18°C
Vlažnost: 51%
Tlak: 1024 hPa
Oblačnost: Delno oblačno
Vidljivost: 10 km
Podrobnosti o oblakih: Delno oblačno 1189 m
2019/06/25 13:00 LJMB 251300Z 09003KT 060V200 9999 SCT039 29/18 Q1024
 
LJPZ - Portoroz, Slovenia
Oddaljenost od postaje: SW 130km
Podatki zajeti: 25/06/2019 15:00
Rahlo oblačno
Rahlo oblačno
 Veter iz smeri N
Veter: N 15 km/h
Temperatura: 34°C
Toplotni indeks: 36°C
Rosišče: 19°C
Vlažnost: 41%
Tlak: 1020 hPa
Oblačnost: Rahlo oblačno
Vidljivost: 10 km
Podrobnosti o oblakih: Rahlo oblačno 1524 m
2019/06/25 13:00 LJPZ 251300Z 36008KT 330V030 9999 FEW050 34/19 Q1020
LJCE - Cerklje, Slovenia
Oddaljenost od postaje: ESE 49km
Podatki zajeti: 25/06/2019 15:00
Rahlo oblačno
Rahlo oblačno
 Veter iz smeri ESE
Veter: ESE 7 km/h
Temperatura: 29°C
Toplotni indeks: 31°C
Rosišče: 20°C
Vlažnost: 58%
Tlak: 1023 hPa
Oblačnost: Rahlo oblačno
Vidljivost: 10 km
Podrobnosti o oblakih: Rahlo oblačno 1219 m
2019/06/25 13:00 LJCE 251300Z 11004KT 9999 FEW040 29/20 Q1023
 
LDZA - Zagreb/Pleso, Croatia
Oddaljenost od postaje: ESE 96km
Podatki zajeti: 25/06/2019 15:00
Rahlo oblačno
Rahlo oblačno
 Veter iz smeri E
Veter: E 9 km/h
Temperatura: 30°C
Toplotni indeks: 32°C
Rosišče: 20°C
Vlažnost: 55%
Tlak: 1023 hPa
Oblačnost: Rahlo oblačno
Vidljivost: 10 km
Podrobnosti o oblakih: Rahlo oblačno 1372 m
2019/06/25 13:00 LDZA 251300Z 08005KT 010V150 9999 FEW045 30/20 Q1023 TEMPO 06008KT
LDRI - Rijeka/Omisalj, Croatia
Oddaljenost od postaje: SSW 109km
Podatki zajeti: 25/06/2019 15:00
Jasno
Jasno
 Veter iz smeri W
Veter: W 13 km/h
Temperatura: 31°C
Toplotni indeks: 32°C
Rosišče: 18°C
Vlažnost: 46%
Tlak: 1021 hPa
Stanje: Jasno
Vidljivost: večja od 10 km
2019/06/25 13:00 LDRI 251300Z 26007KT 200V310 CAVOK 31/18 Q1021
 
LDPL - Pula, Croatia
Oddaljenost od postaje: SSW 164km
Podatki zajeti: 25/06/2019 15:00
Jasno
Jasno
 Veter iz smeri SE
Veter: SE 9 km/h
Temperatura: 31°C
Toplotni indeks: 32°C
Rosišče: 18°C
Vlažnost: 46%
Tlak: 1021 hPa
Stanje: Jasno
Vidljivost: večja od 10 km
2019/06/25 13:00 LDPL 251300Z 14005KT 040V200 CAVOK 31/18 Q1021 TEMPO 27008KT
LOWK - Klagenfurt(Civ/M, Austria
Oddaljenost od postaje: NW 76km
Podatki zajeti: 25/06/2019 15:20
Rahlo oblačno
Rahlo oblačno
 Veter iz smeri ESE
Veter: ESE 9 km/h
Temperatura: 30°C
Toplotni indeks: 31°C
Rosišče: 17°C
Vlažnost: 46%
Tlak: 1024 hPa
Oblačnost: Rahlo oblačno
Vidljivost: 10 km
Podrobnosti o oblakih: Rahlo oblačno 1829 m
2019/06/25 13:20 LOWK 251320Z 11005KT 020V160 9999 FEW060 30/17 Q1024 NOSIG
 
LOWG - Graz (mil/Civ), Austria
Oddaljenost od postaje: NNE 100km
Podatki zajeti: 25/06/2019 15:20
Rahlo oblačno
Rahlo oblačno
 Veter iz smeri ESE
Veter: ESE 9 km/h
Temperatura: 29°C
Toplotni indeks: 29°C
Rosišče: 18°C
Vlažnost: 51%
Tlak: 1024 hPa
Oblačnost: Rahlo oblačno
Vidljivost: 10 km
Podrobnosti o oblakih: Rahlo oblačno 1372 m
2019/06/25 13:20 LOWG 251320Z 12005KT 050V150 9999 FEW045 29/18 Q1024 NOSIG
LOAN - Wr.neustadt East, Austria
Oddaljenost od postaje: NNE 212km
Podatki zajeti: 25/06/2019 15:00
Delno oblačno
Delno oblačno
 Veter iz smeri SE
Veter: SE 22 km/h
Oblačnost: Delno oblačno
Podrobnosti o oblakih: Delno oblačno 1219 m
2019/06/25 13:00 LOAN 251300Z 13012KT 30KM SCT040CU
 
LIPQ - Ronchi Legionari, Italy
Oddaljenost od postaje: SW 35km
Podatki zajeti: 25/06/2019 15:20
Jasno
Jasno
 Veter iz smeri spremenljiv
Veter: spremenljiv 7 km/h
Temperatura: 33°C
Rosišče: 17°C
Vlažnost: 38%
Tlak: 1020 hPa
Stanje: Jasno
Vidljivost: večja od 10 km
2019/06/25 13:20 LIPQ 251320Z VRB04KT CAVOK 33/17 Q1020
LIVT - Trieste, Italy
Oddaljenost od postaje: WSW 109km
Podatki zajeti: 25/06/2019 14:55
Rahlo oblačno
Rahlo oblačno
 Veter iz smeri NNE
Veter: NNE 9 km/h
Temperatura: 34°C
Toplotni indeks: 36°C
Rosišče: 19°C
Vlažnost: 41%
Tlak: 1020 hPa
Oblačnost: Rahlo oblačno
Vidljivost: 10 km
Podrobnosti o oblakih: Rahlo oblačno 914 m
2019/06/25 12:55 LIVT 251255Z 02005KT 9999 FEW030 34/19 Q1020 RMK FEW QUK 2 QUL 1 NE VIS MAR 20 KM VIS MIN 9999
 
LIVO - Tarvisio, Italy
Oddaljenost od postaje: NNW 49km
Podatki zajeti: 25/06/2019 14:55
Rahlo oblačno
Rahlo oblačno
 Veter iz smeri NE
Veter: NE 7 km/h
Temperatura: 28°C
Toplotni indeks: 29°C
Rosišče: 18°C
Vlažnost: 55%
Tlak: 1024 hPa
Oblačnost: Rahlo oblačno
Vidljivost: 10 km
Podrobnosti o oblakih: Rahlo oblačno 914 m
2019/06/25 12:55 LIVO 251255Z 04004KT 9999 FEW030 28/18 Q1024
LIPZ - Venezia/Tessera, Italy
Oddaljenost od postaje: WSW 217km
Podatki zajeti: 25/06/2019 15:20
Rahlo oblačno
Rahlo oblačno
 Veter iz smeri SSE
Veter: SSE 9 km/h
Temperatura: 31°C
Toplotni indeks: 33°C
Rosišče: 19°C
Vlažnost: 49%
Tlak: 1021 hPa
Oblačnost: Rahlo oblačno
Vidljivost: 10 km
Podrobnosti o oblakih: Rahlo oblačno 1372 m
2019/06/25 13:20 LIPZ 251320Z 15005KT 120V180 9999 FEW045 31/19 Q1021 NOSIG
 
LHSM - Balaton, Hungary
Oddaljenost od postaje: ENE 177km
Podatki zajeti: 25/06/2019 14:45
Jasno
Jasno
 Veter iz smeri ENE
Veter: ENE 17 km/h
Temperatura: 30°C
Toplotni indeks: 31°C
Rosišče: 19°C
Vlažnost: 52%
Tlak: 1023 hPa
Oblačnost: Jasno
Vidljivost: 9 km
2019/06/25 12:45 LHSM 251245Z AUTO 07009KT 030V110 9000 NCD 30/19 Q1023 NOSIG